Time;durP1;ratioP1;P1;durP2;ratioP2;P2;SDS_P1;SDS_P2;PMS_P1;PMS_P2;Temp;Humidity;BMP_temperature;BMP_pressure;BME280_temperature;BME280_humidity;BME280_pressure;Samples;Min_cycle;Max_cycle;Signal;HPM_P1;HPM_P2
2023/01/11 00:01:19;;;;;;;0.40;0.40;;;5.20;99.90;;;;;;5075367;28;20185;-68
2023/01/11 00:03:45;;;;;;;0.30;0.30;;;5.10;99.90;;;;;;5076520;28;20190;-70
2023/01/11 00:06:11;;;;;;;0.30;0.30;;;5.20;99.90;;;;;;5076388;28;20204;-69
2023/01/11 00:08:37;;;;;;;0.30;0.30;;;5.10;99.90;;;;;;5076600;28;20194;-69
2023/01/11 00:11:03;;;;;;;0.40;0.40;;;5.20;99.90;;;;;;5076621;28;20251;-69
2023/01/11 00:13:30;;;;;;;0.40;0.40;;;5.10;99.90;;;;;;5076490;28;20618;-69
2023/01/11 00:15:55;;;;;;;0.40;0.40;;;5.10;99.90;;;;;;5076233;28;20177;-69
2023/01/11 00:18:21;;;;;;;0.40;0.40;;;5.10;99.90;;;;;;5075103;28;20181;-69
2023/01/11 00:20:47;;;;;;;0.40;0.40;;;5.10;99.90;;;;;;5076327;28;20181;-69
2023/01/11 00:23:12;;;;;;;0.40;0.40;;;5.10;99.90;;;;;;5076134;28;20193;-69
2023/01/11 00:25:38;;;;;;;0.37;0.37;;;5.00;99.90;;;;;;5075964;28;20201;-68
2023/01/11 00:28:05;;;;;;;0.40;0.40;;;5.00;99.90;;;;;;5076105;28;20635;-69
2023/01/11 00:30:31;;;;;;;0.30;0.30;;;5.10;99.90;;;;;;5076304;28;20170;-70
2023/01/11 00:32:58;;;;;;;0.40;0.40;;;5.00;99.90;;;;;;5076002;28;20577;-70
2023/01/11 00:35:25;;;;;;;0.40;0.40;;;5.10;99.90;;;;;;5074641;28;20673;-69
2023/01/11 00:37:53;;;;;;;0.40;0.40;;;5.10;99.90;;;;;;5075998;28;20254;-69
2023/01/11 00:40:19;;;;;;;0.40;0.40;;;5.10;99.90;;;;;;5076134;28;20178;-68
2023/01/11 00:48:13;;;;;;;0.40;0.40;;;5.00;99.90;;;;;;5075933;28;20176;-69
2023/01/11 00:50:40;;;;;;;0.40;0.40;;;5.00;99.90;;;;;;5075884;28;20530;-70
2023/01/11 00:53:07;;;;;;;0.30;0.30;;;5.00;99.90;;;;;;5076307;28;20173;-69
2023/01/11 00:55:33;;;;;;;0.40;0.40;;;5.10;99.90;;;;;;5075533;28;20626;-69
2023/01/11 00:57:59;;;;;;;0.30;0.30;;;5.10;99.90;;;;;;5075615;28;20176;-69
2023/01/11 01:00:26;;;;;;;0.30;0.30;;;5.10;99.90;;;;;;5075876;28;20181;-70
2023/01/11 01:02:52;;;;;;;0.30;0.30;;;5.10;99.90;;;;;;5075561;28;20166;-69
2023/01/11 01:05:18;;;;;;;0.40;0.40;;;5.20;99.90;;;;;;5075107;28;20198;-70
2023/01/11 01:07:45;;;;;;;0.40;0.40;;;5.20;99.90;;;;;;5075340;28;20408;-69
2023/01/11 01:10:13;;;;;;;0.35;0.35;;;5.20;99.90;;;;;;5075378;28;20421;-68
2023/01/11 01:15:23;;;;;;;0.30;0.30;;;5.10;99.90;;;;;;5075245;28;20179;-69
2023/01/11 01:17:53;;;;;;;0.40;0.40;;;5.00;99.90;;;;;;5075404;28;20260;-68
2023/01/11 01:20:19;;;;;;;0.70;0.70;;;4.90;99.90;;;;;;5075353;28;20181;-69
2023/01/11 01:22:45;;;;;;;0.70;0.70;;;5.00;99.90;;;;;;5075145;28;20175;-69
2023/01/11 01:25:11;;;;;;;0.37;0.37;;;5.00;99.90;;;;;;5074859;28;20668;-69
2023/01/11 01:27:36;;;;;;;0.30;0.30;;;5.00;99.90;;;;;;5075150;28;20404;-69
2023/01/11 01:30:04;;;;;;;0.40;0.40;;;5.00;99.90;;;;;;5075112;28;20174;-69
2023/01/11 01:32:30;;;;;;;0.40;0.40;;;5.00;99.90;;;;;;5075014;28;20165;-69
2023/01/11 01:34:55;;;;;;;0.30;0.30;;;5.00;99.90;;;;;;5074679;28;20220;-69
2023/01/11 01:37:21;;;;;;;0.40;0.40;;;5.00;99.90;;;;;;5074820;28;20196;-69
2023/01/11 01:39:47;;;;;;;0.40;0.40;;;5.00;99.90;;;;;;5074991;28;20170;-69
2023/01/11 01:42:18;;;;;;;0.40;0.40;;;5.10;99.90;;;;;;5074931;28;20173;-69
2023/01/11 01:44:54;;;;;;;0.38;0.38;;;5.10;99.90;;;;;;5074342;28;20197;-69
2023/01/11 01:47:25;;;;;;;0.30;0.30;;;5.10;99.90;;;;;;5074791;28;20170;-70
2023/01/11 01:49:51;;;;;;;0.60;0.60;;;5.10;99.90;;;;;;5074808;28;20166;-69
2023/01/11 01:52:17;;;;;;;0.30;0.30;;;5.10;99.90;;;;;;5074584;28;20173;-68
2023/01/11 01:54:46;;;;;;;1.17;1.17;;;5.20;99.90;;;;;;5074246;28;20189;-69
2023/01/11 01:57:20;;;;;;;0.40;0.40;;;5.10;99.90;;;;;;5074488;28;20400;-68
2023/01/11 01:59:50;;;;;;;0.30;0.30;;;5.20;99.90;;;;;;5074529;28;20177;-69
2023/01/11 02:02:17;;;;;;;0.38;0.38;;;5.10;99.90;;;;;;5074440;28;20166;-68
2023/01/11 02:04:47;;;;;;;0.30;0.30;;;5.10;99.90;;;;;;5074288;28;20292;-69
2023/01/11 02:07:18;;;;;;;0.40;0.40;;;5.20;99.90;;;;;;5074613;28;20218;-69
2023/01/11 02:10:02;;;;;;;0.40;0.40;;;5.10;99.90;;;;;;5074347;28;20173;-69
2023/01/11 02:12:40;;;;;;;0.30;0.30;;;5.10;99.90;;;;;;5073059;28;20183;-70
2023/01/11 02:15:08;;;;;;;0.30;0.30;;;5.10;99.90;;;;;;5073920;28;20201;-69
2023/01/11 02:17:33;;;;;;;0.30;0.30;;;5.00;99.90;;;;;;5074221;28;20215;-68
2023/01/11 02:20:08;;;;;;;0.30;0.30;;;5.10;99.90;;;;;;5074138;28;20178;-69
2023/01/11 02:22:49;;;;;;;0.30;0.30;;;5.10;99.90;;;;;;5074092;28;20177;-69
2023/01/11 02:25:21;;;;;;;0.30;0.30;;;5.10;99.90;;;;;;5073779;28;20670;-68
2023/01/11 02:28:07;;;;;;;0.30;0.30;;;5.00;99.90;;;;;;5072762;28;20177;-70
2023/01/11 02:30:45;;;;;;;0.38;0.38;;;5.00;99.90;;;;;;5073840;28;20166;-69
2023/01/11 02:33:14;;;;;;;0.63;0.63;;;5.00;99.90;;;;;;5073963;28;20185;-69
2023/01/11 02:35:56;;;;;;;0.40;0.40;;;4.90;99.90;;;;;;5073762;28;20260;-70
2023/01/11 02:38:32;;;;;;;0.38;0.38;;;4.80;99.90;;;;;;5073980;28;20177;-69
2023/01/11 02:47:38;;;;;;;0.40;0.40;;;4.90;99.90;;;;;;5073870;28;20653;-70
2023/01/11 02:50:14;;;;;;;0.30;0.30;;;4.90;99.90;;;;;;5074051;28;20191;-69
2023/01/11 02:53:01;;;;;;;0.30;0.30;;;4.90;99.90;;;;;;5073986;28;20169;-69
2023/01/11 02:55:35;;;;;;;0.98;0.98;;;4.90;99.90;;;;;;5073461;28;20157;-69
2023/01/11 02:58:04;;;;;;;0.40;0.40;;;5.00;99.90;;;;;;5073671;28;20198;-69
2023/01/11 03:00:31;;;;;;;0.40;0.40;;;4.90;99.90;;;;;;5073476;28;20701;-69
2023/01/11 03:03:12;;;;;;;0.30;0.30;;;5.00;99.90;;;;;;5073410;28;20537;-68
2023/01/11 03:06:20;;;;;;;0.40;0.40;;;4.90;99.90;;;;;;5073301;28;20205;-69
2023/01/11 03:09:00;;;;;;;0.40;0.40;;;4.80;99.90;;;;;;5072973;28;20209;-69
2023/01/11 03:14:59;;;;;;;0.68;0.68;;;4.80;99.90;;;;;;5073213;28;20196;-69
2023/01/11 03:17:55;;;;;;;0.40;0.40;;;4.80;99.90;;;;;;5073779;28;20175;-68
2023/01/11 03:20:46;;;;;;;0.40;0.40;;;4.70;99.90;;;;;;5073495;28;20555;-69
2023/01/11 03:23:11;;;;;;;0.30;0.30;;;4.70;99.90;;;;;;5073443;28;20200;-69
2023/01/11 03:25:37;;;;;;;0.40;0.40;;;4.80;99.90;;;;;;5073119;28;20197;-69
2023/01/11 03:28:21;;;;;;;0.40;0.40;;;4.80;99.90;;;;;;5073273;28;20166;-69
2023/01/11 03:30:59;;;;;;;0.30;0.30;;;4.80;99.90;;;;;;5073259;28;20169;-69
2023/01/11 03:33:53;;;;;;;0.40;0.40;;;4.80;99.90;;;;;;5073274;28;20189;-69
2023/01/11 03:36:26;;;;;;;0.40;0.40;;;4.90;99.90;;;;;;5075597;28;20181;-68
2023/01/11 03:39:32;;;;;;;0.40;0.40;;;4.90;99.90;;;;;;5077456;28;20219;-69
2023/01/11 03:42:02;;;;;;;0.30;0.30;;;4.90;99.90;;;;;;5077189;28;20177;-69
2023/01/11 03:44:34;;;;;;;0.30;0.30;;;4.90;99.90;;;;;;5076676;28;20237;-69
2023/01/11 03:47:06;;;;;;;0.30;0.30;;;4.90;99.90;;;;;;5077064;28;20257;-70
2023/01/11 03:49:44;;;;;;;0.30;0.30;;;4.90;99.90;;;;;;5076908;28;20523;-68
2023/01/11 03:52:14;;;;;;;0.35;0.35;;;4.90;99.90;;;;;;5075758;28;20519;-69
2023/01/11 03:54:41;;;;;;;0.40;0.40;;;5.00;99.90;;;;;;5076812;28;20197;-69
2023/01/11 03:57:20;;;;;;;0.40;0.40;;;5.00;99.90;;;;;;5077134;28;20503;-68
2023/01/11 03:59:46;;;;;;;0.60;0.60;;;5.00;99.90;;;;;;5076800;28;20257;-69
2023/01/11 04:02:25;;;;;;;0.40;0.40;;;5.00;99.90;;;;;;5076685;28;20689;-69
2023/01/11 04:04:51;;;;;;;0.40;0.40;;;5.00;99.90;;;;;;5076254;28;20451;-69
2023/01/11 04:07:17;;;;;;;0.40;0.40;;;5.00;99.90;;;;;;5076598;28;20256;-68
2023/01/11 04:09:43;;;;;;;0.30;0.30;;;5.00;99.90;;;;;;5076719;28;20165;-70
2023/01/11 04:12:10;;;;;;;0.30;0.30;;;5.00;99.90;;;;;;5076589;28;20166;-69
2023/01/11 04:14:35;;;;;;;0.30;0.30;;;4.90;99.90;;;;;;5076170;28;20190;-70
2023/01/11 04:17:01;;;;;;;0.40;0.40;;;5.10;99.90;;;;;;5076586;28;20516;-69
2023/01/11 04:19:27;;;;;;;0.40;0.40;;;5.20;99.90;;;;;;5076444;28;20416;-68
2023/01/11 04:21:53;;;;;;;0.30;0.30;;;5.10;99.90;;;;;;5076421;28;20744;-69
2023/01/11 04:24:18;;;;;;;0.37;0.37;;;5.10;99.90;;;;;;5075902;28;20228;-69
2023/01/11 04:26:44;;;;;;;0.30;0.30;;;5.10;99.90;;;;;;5076292;28;20189;-69
2023/01/11 04:29:10;;;;;;;0.40;0.40;;;5.10;99.90;;;;;;5076300;28;20243;-68
2023/01/11 04:31:35;;;;;;;0.37;0.37;;;5.10;99.90;;;;;;5076284;28;20712;-70
2023/01/11 04:34:01;;;;;;;0.30;0.30;;;5.00;99.90;;;;;;5075884;28;20225;-69
2023/01/11 04:36:29;;;;;;;0.30;0.30;;;5.10;99.90;;;;;;5075751;28;20181;-69
2023/01/11 04:38:55;;;;;;;0.30;0.30;;;5.10;99.90;;;;;;5076188;28;20400;-69
2023/01/11 04:44:05;;;;;;;0.40;0.40;;;5.10;99.90;;;;;;5075834;28;20243;-70
2023/01/11 04:46:30;;;;;;;0.30;0.30;;;5.10;99.90;;;;;;5074933;28;20574;-68
2023/01/11 04:48:56;;;;;;;0.40;0.40;;;5.10;99.90;;;;;;5075594;28;20295;-69
2023/01/11 04:51:21;;;;;;;0.30;0.30;;;5.10;99.90;;;;;;5075976;28;20223;-68
2023/01/11 04:53:48;;;;;;;0.30;0.30;;;5.10;99.90;;;;;;5074481;28;20199;-68
2023/01/11 04:56:14;;;;;;;0.40;0.40;;;5.00;99.90;;;;;;5075644;28;20567;-69
2023/01/11 04:58:39;;;;;;;0.30;0.30;;;5.10;99.90;;;;;;5075556;28;20201;-68
2023/01/11 05:01:16;;;;;;;0.30;0.30;;;5.00;99.90;;;;;;5075687;28;20630;-69
2023/01/11 05:03:42;;;;;;;0.40;0.40;;;5.10;99.90;;;;;;5075668;28;20212;-69
2023/01/11 05:06:08;;;;;;;0.40;0.40;;;5.20;99.90;;;;;;5075358;28;20194;-70
2023/01/11 05:08:34;;;;;;;0.30;0.30;;;5.10;99.90;;;;;;5074560;28;20573;-69
2023/01/11 05:11:02;;;;;;;0.40;0.40;;;5.10;99.90;;;;;;5075534;28;20885;-69
2023/01/11 05:13:40;;;;;;;0.30;0.30;;;5.10;99.90;;;;;;5075511;28;20235;-69
2023/01/11 05:16:06;;;;;;;0.40;0.40;;;5.10;99.90;;;;;;5075197;28;20218;-70
2023/01/11 05:18:32;;;;;;;0.30;0.30;;;5.10;99.90;;;;;;5075239;28;20694;-68
2023/01/11 05:20:57;;;;;;;0.30;0.30;;;5.10;99.90;;;;;;5075272;28;20169;-69
2023/01/11 05:23:23;;;;;;;0.40;0.40;;;5.20;99.90;;;;;;5075137;28;20200;-69
2023/01/11 05:25:48;;;;;;;0.40;0.40;;;5.20;99.90;;;;;;5074819;28;20185;-69
2023/01/11 05:28:14;;;;;;;0.40;0.40;;;5.20;99.90;;;;;;5074994;28;20174;-68
2023/01/11 05:30:39;;;;;;;0.40;0.40;;;5.20;99.90;;;;;;5075375;28;20192;-68
2023/01/11 05:33:05;;;;;;;0.30;0.30;;;5.20;99.90;;;;;;5074862;28;20215;-68
2023/01/11 05:35:31;;;;;;;0.30;0.30;;;5.20;99.90;;;;;;5074949;28;20191;-70
2023/01/11 05:37:56;;;;;;;0.30;0.30;;;5.20;99.90;;;;;;5074991;28;20192;-69
2023/01/11 05:40:22;;;;;;;0.40;0.40;;;5.20;99.90;;;;;;5074808;28;20169;-69
2023/01/11 05:42:47;;;;;;;0.40;0.40;;;5.20;99.90;;;;;;5074697;28;20196;-69
2023/01/11 05:45:28;;;;;;;2.40;1.50;;;5.30;99.90;;;;;;5074660;28;20281;-69
2023/01/11 05:47:54;;;;;;;0.65;0.65;;;5.30;99.90;;;;;;5074692;28;20173;-69
2023/01/11 05:50:20;;;;;;;0.30;0.30;;;5.30;99.90;;;;;;5074673;28;20253;-69
2023/01/11 05:52:45;;;;;;;0.30;0.30;;;5.30;99.90;;;;;;5074528;28;20602;-69
2023/01/11 05:55:11;;;;;;;0.40;0.40;;;5.30;99.90;;;;;;5074166;28;20423;-70
2023/01/11 05:57:40;;;;;;;0.40;0.40;;;5.30;99.90;;;;;;5074271;28;20203;-69
2023/01/11 06:00:06;;;;;;;1.15;0.63;;;5.30;99.90;;;;;;5074230;28;20514;-69
2023/01/11 06:02:34;;;;;;;0.30;0.30;;;5.30;99.90;;;;;;5074358;28;20180;-69
2023/01/11 06:04:59;;;;;;;0.40;0.40;;;5.40;99.90;;;;;;5073959;28;20225;-69
2023/01/11 06:07:25;;;;;;;0.40;0.40;;;5.40;99.90;;;;;;5074444;28;20212;-69
2023/01/11 06:09:50;;;;;;;0.30;0.30;;;5.30;99.90;;;;;;5074106;28;20253;-70
2023/01/11 06:12:16;;;;;;;0.30;0.30;;;5.30;99.90;;;;;;5074269;28;20173;-68
2023/01/11 06:14:42;;;;;;;0.30;0.30;;;5.30;99.90;;;;;;5073904;28;20193;-68
2023/01/11 06:17:07;;;;;;;0.30;0.30;;;5.20;99.90;;;;;;5074048;28;20247;-69
2023/01/11 06:19:33;;;;;;;0.40;0.40;;;5.30;99.90;;;;;;5074159;28;20178;-69
2023/01/11 06:21:58;;;;;;;0.40;0.40;;;5.30;99.90;;;;;;5074163;28;20622;-69
2023/01/11 06:24:24;;;;;;;0.30;0.30;;;5.30;99.90;;;;;;5073780;28;20208;-69
2023/01/11 06:26:53;;;;;;;0.50;0.50;;;5.30;99.90;;;;;;5073915;28;20646;-68
2023/01/11 06:29:18;;;;;;;0.40;0.40;;;5.30;99.90;;;;;;5073948;28;20516;-68
2023/01/11 06:31:44;;;;;;;0.30;0.30;;;5.10;99.90;;;;;;5073911;28;20180;-69
2023/01/11 06:34:10;;;;;;;0.30;0.30;;;5.30;99.90;;;;;;5073606;28;20189;-69
2023/01/11 06:36:36;;;;;;;0.30;0.30;;;5.40;99.90;;;;;;5073745;28;20291;-69
2023/01/11 06:39:02;;;;;;;0.38;0.38;;;5.40;99.90;;;;;;5072597;28;21302;-69
2023/01/11 06:41:28;;;;;;;0.40;0.40;;;5.50;99.90;;;;;;5073713;28;20173;-69
2023/01/11 06:43:53;;;;;;;0.40;0.40;;;5.60;99.90;;;;;;5073756;28;20507;-68
2023/01/11 06:46:19;;;;;;;0.30;0.30;;;5.60;99.90;;;;;;5073506;28;20855;-68
2023/01/11 06:48:46;;;;;;;0.40;0.40;;;5.60;99.90;;;;;;5073855;28;20222;-69
2023/01/11 06:51:13;;;;;;;0.40;0.40;;;5.70;99.90;;;;;;5073715;28;20177;-68
2023/01/11 06:53:40;;;;;;;0.50;0.50;;;5.80;99.90;;;;;;5073952;28;20231;-69
2023/01/11 06:56:06;;;;;;;0.30;0.30;;;5.90;99.90;;;;;;5073371;28;20186;-69
2023/01/11 06:58:32;;;;;;;0.32;0.32;;;5.90;99.90;;;;;;5073900;28;20176;-69
2023/01/11 07:00:58;;;;;;;1.90;1.07;;;5.90;99.90;;;;;;5073604;28;20173;-69
2023/01/11 07:03:24;;;;;;;0.77;0.77;;;5.90;99.90;;;;;;5073490;28;20275;-68
2023/01/11 07:05:55;;;;;;;0.30;0.30;;;5.90;99.90;;;;;;5073242;28;20189;-68
2023/01/11 07:08:22;;;;;;;0.30;0.30;;;5.90;99.90;;;;;;5073682;28;20197;-69
2023/01/11 07:10:47;;;;;;;0.40;0.40;;;5.90;99.90;;;;;;5072954;28;20618;-70
2023/01/11 07:13:16;;;;;;;3.83;1.27;;;5.90;99.90;;;;;;5073485;28;20235;-69
2023/01/11 07:15:42;;;;;;;0.40;0.40;;;5.90;99.90;;;;;;5073154;28;20504;-69
2023/01/11 07:18:08;;;;;;;0.30;0.30;;;6.00;99.90;;;;;;5073509;28;20174;-68
2023/01/11 07:20:33;;;;;;;0.30;0.30;;;6.00;99.90;;;;;;5073423;28;20661;-70
2023/01/11 07:23:00;;;;;;;0.40;0.40;;;6.00;99.90;;;;;;5073434;28;20169;-70
2023/01/11 07:25:27;;;;;;;0.30;0.30;;;6.10;99.90;;;;;;5073094;28;20204;-69
2023/01/11 07:27:57;;;;;;;0.30;0.30;;;6.20;99.90;;;;;;5073347;28;20189;-69
2023/01/11 07:30:24;;;;;;;0.40;0.40;;;6.10;99.90;;;;;;5073310;28;20169;-69
2023/01/11 07:32:49;;;;;;;0.30;0.30;;;6.20;99.90;;;;;;5073297;28;20172;-69
2023/01/11 07:35:15;;;;;;;0.30;0.30;;;6.10;99.90;;;;;;5072882;28;20667;-69
2023/01/11 07:37:40;;;;;;;0.33;0.33;;;6.20;99.90;;;;;;5073015;28;20188;-68
2023/01/11 07:40:07;;;;;;;0.30;0.30;;;6.20;99.90;;;;;;5073157;28;20259;-70
2023/01/11 07:45:16;;;;;;;0.90;0.85;;;6.20;99.90;;;;;;5072870;28;20606;-67
2023/01/11 07:47:42;;;;;;;0.50;0.50;;;6.20;99.90;;;;;;5073238;28;20163;-69
2023/01/11 07:50:08;;;;;;;0.40;0.40;;;6.20;99.90;;;;;;5073214;28;20396;-68
2023/01/11 07:52:34;;;;;;;0.60;0.60;;;6.30;99.90;;;;;;5073086;28;20606;-68
2023/01/11 07:55:01;;;;;;;0.40;0.40;;;6.30;99.90;;;;;;5072734;28;20223;-70
2023/01/11 07:57:28;;;;;;;0.40;0.40;;;6.30;99.90;;;;;;5073143;28;20182;-69
2023/01/11 07:59:54;;;;;;;0.50;0.50;;;6.30;99.90;;;;;;5073056;28;20207;-69
2023/01/11 08:02:19;;;;;;;0.40;0.40;;;6.20;99.90;;;;;;5072841;28;20181;-69
2023/01/11 08:04:45;;;;;;;0.40;0.40;;;6.40;99.90;;;;;;5072563;28;20199;-69
2023/01/11 08:07:11;;;;;;;0.47;0.47;;;6.40;99.90;;;;;;5071892;28;20539;-70
2023/01/11 08:09:36;;;;;;;0.60;0.60;;;6.40;99.90;;;;;;5073043;28;20170;-69
2023/01/11 08:14:46;;;;;;;0.82;0.50;;;6.20;99.90;;;;;;5072503;28;20722;-69
2023/01/11 08:17:14;;;;;;;0.80;0.80;;;6.30;99.90;;;;;;5072629;28;20266;-69
2023/01/11 08:19:40;;;;;;;0.40;0.40;;;6.40;99.90;;;;;;5072935;28;20170;-68
2023/01/11 08:22:06;;;;;;;1.55;1.50;;;6.50;99.90;;;;;;5073914;28;20194;-71
2023/01/11 08:24:33;;;;;;;1.55;1.48;;;6.50;99.90;;;;;;5075168;28;20200;-69
2023/01/11 08:26:59;;;;;;;1.15;1.15;;;6.50;99.90;;;;;;5076891;28;20544;-68
2023/01/11 08:29:25;;;;;;;0.77;0.77;;;6.50;99.90;;;;;;5074597;28;20514;-71
2023/01/11 08:31:51;;;;;;;0.60;0.60;;;6.50;99.90;;;;;;5076113;28;20277;-70
2023/01/11 08:34:17;;;;;;;2.10;1.90;;;6.50;99.90;;;;;;5076251;28;20273;-71
2023/01/11 08:36:42;;;;;;;2.40;2.20;;;6.40;99.90;;;;;;5076136;28;20425;-71
2023/01/11 08:39:08;;;;;;;0.50;0.50;;;6.50;99.90;;;;;;5076514;28;20174;-69
2023/01/11 08:41:34;;;;;;;0.60;0.60;;;6.50;99.90;;;;;;5076646;28;20431;-70
2023/01/11 08:44:00;;;;;;;0.93;0.60;;;6.60;99.90;;;;;;5076592;28;20427;-69
2023/01/11 08:46:25;;;;;;;1.00;1.00;;;6.70;99.90;;;;;;5075844;28;20689;-71
2023/01/11 08:48:54;;;;;;;0.30;0.30;;;6.70;99.90;;;;;;5076116;28;20666;-70
2023/01/11 08:51:20;;;;;;;0.40;0.40;;;6.70;99.90;;;;;;5076031;28;20164;-70
2023/01/11 08:53:46;;;;;;;0.67;0.47;;;6.70;99.90;;;;;;5076227;28;20191;-70
2023/01/11 08:56:12;;;;;;;0.30;0.30;;;6.70;99.90;;;;;;5076286;28;20527;-68
2023/01/11 08:58:37;;;;;;;0.65;0.65;;;6.80;99.90;;;;;;5074582;28;20725;-69
2023/01/11 09:01:07;;;;;;;1.00;0.87;;;6.80;99.90;;;;;;5074380;28;20262;-68
2023/01/11 09:03:33;;;;;;;0.30;0.30;;;6.90;99.90;;;;;;5075698;28;20249;-70
2023/01/11 09:05:58;;;;;;;0.60;0.60;;;6.90;99.90;;;;;;5075795;28;20199;-68
2023/01/11 09:08:25;;;;;;;0.30;0.30;;;6.90;99.90;;;;;;5075655;28;20164;-70
2023/01/11 09:10:51;;;;;;;4.63;1.77;;;7.00;99.90;;;;;;5076116;28;20401;-69
2023/01/11 09:13:16;;;;;;;0.40;0.40;;;7.00;99.90;;;;;;5075316;28;20194;-71
2023/01/11 09:15:45;;;;;;;0.40;0.40;;;6.90;99.90;;;;;;5075318;28;20176;-70
2023/01/11 09:18:14;;;;;;;0.77;0.77;;;6.90;99.90;;;;;;5075270;28;20290;-71
2023/01/11 09:20:40;;;;;;;0.35;0.35;;;6.90;99.90;;;;;;5075497;28;20207;-71
2023/01/11 09:23:06;;;;;;;0.50;0.50;;;6.90;99.90;;;;;;5075298;28;20576;-71
2023/01/11 09:25:32;;;;;;;0.40;0.40;;;7.00;99.90;;;;;;5075225;28;20455;-72
2023/01/11 09:27:57;;;;;;;0.50;0.50;;;7.00;99.90;;;;;;5075206;28;20203;-73
2023/01/11 09:30:23;;;;;;;0.30;0.30;;;7.10;99.90;;;;;;5075360;28;20588;-70
2023/01/11 09:32:51;;;;;;;0.30;0.30;;;7.10;99.90;;;;;;5074749;28;20176;-67
2023/01/11 09:35:18;;;;;;;0.50;0.50;;;7.10;99.90;;;;;;5074920;28;20177;-69
2023/01/11 09:37:55;;;;;;;0.98;0.98;;;7.10;99.90;;;;;;5074777;28;20189;-70
2023/01/11 09:40:47;;;;;;;0.30;0.30;;;7.20;99.90;;;;;;5075138;28;20230;-67
2023/01/11 09:43:16;;;;;;;0.60;0.47;;;7.30;99.90;;;;;;5075280;28;20197;-70
2023/01/11 09:45:45;;;;;;;1.73;0.68;;;7.30;99.90;;;;;;5074591;28;20291;-69
2023/01/11 09:48:42;;;;;;;0.60;0.60;;;7.40;99.90;;;;;;5075300;28;20527;-70
2023/01/11 09:51:18;;;;;;;0.75;0.75;;;7.40;99.90;;;;;;5074761;28;20334;-70
2023/01/11 09:53:51;;;;;;;1.58;1.58;;;7.50;99.90;;;;;;5073620;28;20215;-68
2023/01/11 09:56:28;;;;;;;0.50;0.50;;;7.40;99.90;;;;;;5073757;28;20244;-69
2023/01/11 09:59:15;;;;;;;0.70;0.70;;;7.50;99.90;;;;;;5075130;28;20177;-68
2023/01/11 10:01:48;;;;;;;0.30;0.30;;;7.50;99.90;;;;;;5074615;28;20204;-69
2023/01/11 10:04:32;;;;;;;0.40;0.40;;;7.50;99.90;;;;;;5074321;28;20673;-70
2023/01/11 10:07:24;;;;;;;0.30;0.30;;;7.60;99.90;;;;;;5074334;28;20614;-69
2023/01/11 10:10:21;;;;;;;6.57;0.93;;;7.70;99.90;;;;;;5074671;28;20190;-67
2023/01/11 10:13:13;;;;;;;2.88;1.98;;;7.70;99.90;;;;;;5074662;28;20168;-68
2023/01/11 10:16:19;;;;;;;0.95;0.95;;;7.60;99.90;;;;;;5074206;28;20268;-68
2023/01/11 10:19:05;;;;;;;1.27;1.27;;;7.60;99.90;;;;;;5074754;28;20176;-68
2023/01/11 10:21:45;;;;;;;1.27;1.25;;;7.60;99.90;;;;;;5073350;28;20322;-69
2023/01/11 10:24:22;;;;;;;4.72;0.95;;;7.50;99.90;;;;;;5074122;28;20197;-68
2023/01/11 10:26:51;;;;;;;1.25;1.25;;;7.60;99.90;;;;;;5074596;28;20180;-70
2023/01/11 10:32:42;;;;;;;1.48;0.88;;;7.60;99.90;;;;;;5073864;28;20171;-67
2023/01/11 10:35:44;;;;;;;1.90;1.73;;;7.50;99.90;;;;;;5073835;28;20228;-68
2023/01/11 10:38:42;;;;;;;2.05;1.75;;;7.60;99.90;;;;;;5073727;28;20184;-70
2023/01/11 10:41:24;;;;;;;0.60;0.60;;;7.40;99.90;;;;;;5074157;28;20259;-71
2023/01/11 10:44:01;;;;;;;1.35;1.25;;;7.50;99.90;;;;;;5072551;28;20196;-70
2023/01/11 10:46:29;;;;;;;0.50;0.50;;;7.50;99.90;;;;;;5072109;28;20188;-71
2023/01/11 10:49:08;;;;;;;0.30;0.30;;;7.60;99.90;;;;;;5073821;28;20214;-70
2023/01/11 10:51:42;;;;;;;0.30;0.30;;;7.70;99.90;;;;;;5073643;28;20172;-71
2023/01/11 10:54:23;;;;;;;0.40;0.40;;;7.70;99.90;;;;;;5071943;28;20607;-70
2023/01/11 10:57:00;;;;;;;0.30;0.30;;;7.80;99.90;;;;;;5073247;28;20164;-70
2023/01/11 10:59:58;;;;;;;0.30;0.30;;;7.90;99.90;;;;;;5073527;28;20176;-70
2023/01/11 11:02:36;;;;;;;0.30;0.30;;;8.00;99.90;;;;;;5073687;28;20160;-71
2023/01/11 11:05:24;;;;;;;0.40;0.40;;;8.10;99.90;;;;;;5073208;28;20199;-71
2023/01/11 11:08:05;;;;;;;0.40;0.40;;;8.10;99.90;;;;;;5073989;28;20177;-70
2023/01/11 11:10:55;;;;;;;0.70;0.70;;;8.10;99.90;;;;;;5073644;28;20166;-71
2023/01/11 11:13:25;;;;;;;0.30;0.30;;;8.10;99.90;;;;;;5073436;28;20290;-71
2023/01/11 11:16:13;;;;;;;0.40;0.40;;;8.30;99.90;;;;;;5071743;28;20711;-71
2023/01/11 11:18:41;;;;;;;0.30;0.30;;;8.40;99.90;;;;;;5073355;28;20252;-71
2023/01/11 11:21:19;;;;;;;0.98;0.98;;;8.40;99.90;;;;;;5073393;28;20181;-71
2023/01/11 11:23:59;;;;;;;0.50;0.50;;;8.20;99.90;;;;;;5073266;28;20220;-71
2023/01/11 11:26:32;;;;;;;0.30;0.30;;;8.00;99.90;;;;;;5073258;28;20200;-70
2023/01/11 11:29:01;;;;;;;0.40;0.40;;;8.00;99.90;;;;;;5073533;28;20167;-71
2023/01/11 11:31:29;;;;;;;0.30;0.30;;;8.10;99.90;;;;;;5073128;28;20245;-70
2023/01/11 11:33:55;;;;;;;0.40;0.40;;;8.20;99.90;;;;;;5073197;28;20199;-71
2023/01/11 11:36:23;;;;;;;0.30;0.30;;;8.20;99.90;;;;;;5072935;28;20288;-71
2023/01/11 11:39:27;;;;;;;0.30;0.30;;;8.30;99.90;;;;;;5073098;28;20183;-71
2023/01/11 11:41:55;;;;;;;0.30;0.30;;;8.20;99.90;;;;;;5073311;28;20176;-71
2023/01/11 11:44:26;;;;;;;0.30;0.30;;;8.20;99.90;;;;;;5072746;28;20217;-70
2023/01/11 11:47:04;;;;;;;0.40;0.40;;;8.30;99.90;;;;;;5071507;28;20179;-70
2023/01/11 11:49:35;;;;;;;0.30;0.30;;;8.40;99.90;;;;;;5072928;28;20172;-71
2023/01/11 11:52:03;;;;;;;0.30;0.30;;;8.50;99.90;;;;;;5073288;28;20682;-71
2023/01/11 11:54:37;;;;;;;0.30;0.30;;;8.50;99.90;;;;;;5071042;28;20689;-70
2023/01/11 11:57:34;;;;;;;0.30;0.30;;;8.50;99.90;;;;;;5075403;28;20631;-70
2023/01/11 12:00:25;;;;;;;0.30;0.30;;;8.50;99.90;;;;;;5076475;28;20182;-71
2023/01/11 12:03:00;;;;;;;0.30;0.30;;;8.50;99.90;;;;;;5075415;28;20516;-67
2023/01/11 12:05:26;;;;;;;0.30;0.30;;;8.60;99.90;;;;;;5075543;28;20235;-68
2023/01/11 12:07:53;;;;;;;0.85;0.85;;;8.70;99.90;;;;;;5077273;28;20486;-69
2023/01/11 12:10:22;;;;;;;0.30;0.30;;;8.80;99.90;;;;;;5076768;28;20173;-69
2023/01/11 12:13:00;;;;;;;0.50;0.50;;;8.70;99.90;;;;;;5075299;28;20180;-69
2023/01/11 12:15:33;;;;;;;0.35;0.35;;;8.80;99.90;;;;;;5076465;28;20637;-67
2023/01/11 12:18:25;;;;;;;0.30;0.30;;;8.80;99.90;;;;;;5076462;28;20166;-69
2023/01/11 12:20:52;;;;;;;0.30;0.30;;;8.80;99.90;;;;;;5076435;28;20201;-70
2023/01/11 12:23:20;;;;;;;0.30;0.30;;;8.70;99.90;;;;;;5076298;28;20238;-70
2023/01/11 12:25:58;;;;;;;0.30;0.30;;;8.40;99.90;;;;;;5076538;28;20200;-69
2023/01/11 12:28:38;;;;;;;0.40;0.40;;;8.50;99.90;;;;;;5074656;28;20169;-70
2023/01/11 12:31:13;;;;;;;0.30;0.30;;;8.70;99.90;;;;;;5073856;28;20180;-70
2023/01/11 12:33:52;;;;;;;0.40;0.40;;;8.80;99.90;;;;;;5075642;28;20234;-68
2023/01/11 12:36:43;;;;;;;0.40;0.40;;;8.90;99.90;;;;;;5075993;28;20524;-69
2023/01/11 12:39:27;;;;;;;1.42;1.33;;;9.00;99.90;;;;;;5074164;28;20207;-70
2023/01/11 12:42:13;;;;;;;0.30;0.30;;;9.10;99.90;;;;;;5076061;28;20150;-69
2023/01/11 12:44:57;;;;;;;0.95;0.95;;;9.20;99.90;;;;;;5074096;28;20744;-70
2023/01/11 12:47:49;;;;;;;0.30;0.30;;;9.20;99.90;;;;;;5074879;28;20165;-71
2023/01/11 12:50:23;;;;;;;0.40;0.40;;;9.20;99.90;;;;;;5076411;28;20631;-69
2023/01/11 12:53:02;;;;;;;1.70;0.60;;;9.10;99.90;;;;;;5076191;28;20169;-68
2023/01/11 12:56:21;;;;;;;0.95;0.95;;;9.10;99.90;;;;;;5075701;28;20174;-71
2023/01/11 12:58:52;;;;;;;0.30;0.30;;;9.20;99.90;;;;;;5074065;28;20536;-68
2023/01/11 13:01:24;;;;;;;0.30;0.30;;;9.20;99.90;;;;;;5075885;28;20189;-69
2023/01/11 13:04:08;;;;;;;0.40;0.40;;;9.20;99.90;;;;;;5075749;28;20193;-69
2023/01/11 13:07:00;;;;;;;0.30;0.30;;;9.20;99.90;;;;;;5074533;28;20662;-68
2023/01/11 13:09:46;;;;;;;0.30;0.30;;;9.20;99.90;;;;;;5075061;28;20184;-70
2023/01/11 13:12:56;;;;;;;0.98;0.88;;;9.20;99.90;;;;;;5075725;28;20169;-69
2023/01/11 13:15:40;;;;;;;0.40;0.40;;;9.20;99.90;;;;;;5073350;28;20177;-70
2023/01/11 13:18:19;;;;;;;0.30;0.30;;;9.20;99.90;;;;;;5075564;28;20657;-68
2023/01/11 13:21:16;;;;;;;0.30;0.30;;;9.10;99.90;;;;;;5075965;28;20176;-69
2023/01/11 13:23:54;;;;;;;0.30;0.30;;;9.10;99.90;;;;;;5074409;28;20689;-68
2023/01/11 13:26:34;;;;;;;0.30;0.30;;;9.00;99.90;;;;;;5075006;28;20197;-70
2023/01/11 13:29:05;;;;;;;0.30;0.30;;;9.10;99.90;;;;;;5075755;28;20196;-69
2023/01/11 13:31:33;;;;;;;0.30;0.30;;;9.10;99.90;;;;;;5075326;28;20261;-69
2023/01/11 13:34:28;;;;;;;0.30;0.30;;;9.10;99.90;;;;;;5073602;28;20236;-69
2023/01/11 13:37:07;;;;;;;0.30;0.30;;;9.00;99.90;;;;;;5074676;28;20238;-70
2023/01/11 13:40:08;;;;;;;0.30;0.30;;;8.80;99.90;;;;;;5074817;28;20162;-69
2023/01/11 13:42:41;;;;;;;0.50;0.40;;;8.70;99.90;;;;;;5061502;28;20563;-68
2023/01/11 13:45:16;;;;;;;0.40;0.40;;;8.70;99.90;;;;;;5074766;28;20197;-70
2023/01/11 13:47:50;;;;;;;0.30;0.30;;;8.70;99.90;;;;;;5075305;28;20172;-69
2023/01/11 13:50:26;;;;;;;0.30;0.30;;;8.70;99.90;;;;;;5075080;28;20639;-69
2023/01/11 13:53:08;;;;;;;0.63;0.63;;;8.70;99.90;;;;;;5074994;28;20168;-70